createdAt,value
2017-09-19T00:01:12.537Z,7.37
2017-09-19T00:03:39.506Z,5.90
2017-09-19T00:06:06.789Z,6.70
2017-09-19T00:08:34.107Z,5.17
2017-09-19T00:11:01.067Z,6.23
2017-09-19T00:13:27.954Z,6.90
2017-09-19T00:15:54.950Z,5.43
2017-09-19T00:18:21.897Z,5.33
2017-09-19T00:20:48.842Z,5.20
2017-09-19T00:23:15.770Z,5.47
2017-09-19T00:25:42.738Z,6.50
2017-09-19T00:28:09.685Z,5.53
2017-09-19T00:30:36.608Z,6.43
2017-09-19T00:33:03.494Z,7.27
2017-09-19T00:35:30.773Z,8.53
2017-09-19T00:37:57.693Z,6.40
2017-09-19T00:40:25.029Z,6.53
2017-09-19T00:42:51.982Z,7.20
2017-09-19T00:45:18.910Z,6.27
2017-09-19T00:47:45.813Z,7.20
2017-09-19T00:50:12.694Z,6.47
2017-09-19T00:52:39.609Z,7.67
2017-09-19T00:55:06.490Z,6.40
2017-09-19T00:57:33.374Z,6.70
2017-09-19T01:00:00.689Z,7.60
2017-09-19T01:02:27.659Z,6.03
2017-09-19T01:04:54.593Z,5.50
2017-09-19T01:07:21.609Z,5.80
2017-09-19T01:09:48.493Z,7.17
2017-09-19T01:12:15.378Z,6.27
2017-09-19T01:14:42.298Z,6.63
2017-09-19T01:17:09.582Z,7.23
2017-09-19T01:19:36.469Z,7.13
2017-09-19T01:22:03.381Z,6.97
2017-09-19T01:24:30.269Z,6.57
2017-09-19T01:26:57.146Z,7.00
2017-09-19T01:29:24.458Z,7.93
2017-09-19T01:31:51.346Z,8.07
2017-09-19T01:34:18.681Z,7.53
2017-09-19T01:36:45.603Z,7.87
2017-09-19T01:39:12.570Z,8.40
2017-09-19T01:41:39.450Z,8.80
2017-09-19T01:44:06.453Z,8.50
2017-09-19T01:46:33.397Z,8.10
2017-09-19T01:49:00.358Z,9.37
2017-09-19T01:51:27.298Z,8.53
2017-09-19T01:53:54.241Z,9.30
2017-09-19T01:56:21.597Z,8.40
2017-09-19T01:58:48.508Z,7.87
2017-09-19T02:01:15.493Z,9.43
2017-09-19T02:03:42.386Z,8.93
2017-09-19T02:06:09.305Z,9.30
2017-09-19T02:08:36.586Z,9.30
2017-09-19T02:11:03.487Z,8.30
2017-09-19T02:13:30.431Z,9.87
2017-09-19T02:15:57.382Z,8.50
2017-09-19T02:18:24.275Z,10.00
2017-09-19T02:20:51.209Z,9.63
2017-09-19T02:23:18.099Z,9.67
2017-09-19T02:25:45.213Z,10.80
2017-09-19T02:28:12.214Z,9.17
2017-09-19T02:30:39.157Z,11.00
2017-09-19T02:33:06.102Z,9.27
2017-09-19T02:35:33.017Z,9.57
2017-09-19T02:37:59.992Z,10.07
2017-09-19T02:40:26.946Z,8.73
2017-09-19T02:42:53.984Z,9.60
2017-09-19T02:45:20.937Z,9.47
2017-09-19T02:47:47.824Z,8.57
2017-09-19T02:50:14.755Z,9.90
2017-09-19T02:52:42.030Z,9.83
2017-09-19T02:55:08.930Z,11.07
2017-09-19T02:57:35.869Z,10.30
2017-09-19T03:00:02.822Z,11.37
2017-09-19T03:02:29.774Z,10.10
2017-09-19T03:04:56.713Z,9.60
2017-09-19T03:07:23.598Z,10.53
2017-09-19T03:09:50.478Z,10.30
2017-09-19T03:12:17.398Z,11.20
2017-09-19T03:14:44.282Z,11.00
2017-09-19T03:17:11.238Z,10.07
2017-09-19T03:19:38.186Z,10.20
2017-09-19T03:22:05.077Z,10.90
2017-09-19T03:24:31.953Z,10.83
2017-09-19T03:26:58.885Z,11.43
2017-09-19T03:29:25.768Z,11.07
2017-09-19T03:31:52.723Z,11.00
2017-09-19T03:34:19.643Z,11.30
2017-09-19T03:36:46.525Z,11.30
2017-09-19T03:39:13.818Z,11.10
2017-09-19T03:41:40.731Z,12.13
2017-09-19T03:44:08.014Z,10.87
2017-09-19T03:46:35.014Z,10.97
2017-09-19T03:49:01.957Z,10.20
2017-09-19T03:51:28.853Z,11.67
2017-09-19T03:53:55.751Z,9.90
2017-09-19T03:56:22.685Z,11.40
2017-09-19T03:58:49.616Z,9.70
2017-09-19T04:01:16.503Z,11.80
2017-09-19T04:03:43.813Z,10.23
2017-09-19T04:06:10.696Z,11.87
2017-09-19T04:08:38.065Z,10.50
2017-09-19T04:11:05.450Z,10.60
2017-09-19T04:13:32.342Z,10.73
2017-09-19T04:15:59.238Z,12.00
2017-09-19T04:18:26.164Z,11.70
2017-09-19T04:20:53.088Z,11.13
2017-09-19T04:23:19.966Z,9.63
2017-09-19T04:25:46.883Z,10.90
2017-09-19T04:28:14.229Z,11.37
2017-09-19T04:30:41.173Z,10.60
2017-09-19T04:33:08.106Z,12.60
2017-09-19T04:35:35.065Z,11.00
2017-09-19T04:38:01.951Z,10.60
2017-09-19T04:40:28.962Z,11.37
2017-09-19T04:42:55.841Z,10.87
2017-09-19T04:45:22.747Z,10.80
2017-09-19T04:47:49.737Z,10.87
2017-09-19T04:50:16.641Z,11.47
2017-09-19T04:52:43.537Z,10.10
2017-09-19T04:55:10.545Z,11.30
2017-09-19T04:57:37.821Z,12.00
2017-09-19T05:00:04.734Z,11.83
2017-09-19T05:02:31.685Z,11.23
2017-09-19T05:04:58.565Z,9.23
2017-09-19T05:07:25.474Z,8.90
2017-09-19T05:09:52.413Z,12.10
2017-09-19T05:12:19.367Z,10.90
2017-09-19T05:14:46.246Z,10.67
2017-09-19T05:17:13.165Z,11.77
2017-09-19T05:19:40.510Z,10.77
2017-09-19T05:22:07.461Z,11.07
2017-09-19T05:24:34.401Z,14.40
2017-09-19T05:27:01.349Z,10.27
2017-09-19T05:29:28.293Z,9.50
2017-09-19T05:31:55.236Z,11.27
2017-09-19T05:34:22.187Z,9.67
2017-09-19T05:36:49.129Z,10.03
2017-09-19T05:39:16.049Z,10.57
2017-09-19T05:41:42.935Z,9.10
2017-09-19T05:44:09.810Z,9.40
2017-09-19T05:46:36.742Z,8.97
2017-09-19T05:49:03.715Z,9.70
2017-09-19T05:51:30.666Z,9.27
2017-09-19T05:53:57.578Z,9.83
2017-09-19T05:56:24.473Z,10.37
2017-09-19T05:58:51.825Z,9.60
2017-09-19T06:01:19.173Z,10.10
2017-09-19T06:03:46.148Z,10.00
2017-09-19T06:06:13.037Z,9.27
2017-09-19T06:08:52.013Z,8.90
2017-09-19T06:11:19.358Z,9.30
2017-09-19T06:13:46.701Z,8.73
2017-09-19T06:16:13.628Z,8.40
2017-09-19T06:18:40.597Z,9.07
2017-09-19T06:21:07.543Z,10.10
2017-09-19T06:23:34.460Z,9.97
2017-09-19T06:26:01.477Z,10.00
2017-09-19T06:28:28.355Z,7.90
2017-09-19T06:30:55.274Z,8.77
2017-09-19T06:33:22.157Z,9.23
2017-09-19T06:35:49.045Z,10.00
2017-09-19T06:38:16.365Z,8.30
2017-09-19T06:40:43.313Z,9.57
2017-09-19T06:43:10.197Z,9.03
2017-09-19T06:45:37.106Z,8.77
2017-09-19T06:48:03.982Z,8.50
2017-09-19T06:50:30.889Z,8.30
2017-09-19T06:52:57.800Z,9.37
2017-09-19T06:55:24.782Z,9.27
2017-09-19T06:57:51.733Z,8.00
2017-09-19T07:00:18.678Z,9.60
2017-09-19T07:02:45.634Z,8.70
2017-09-19T07:05:12.620Z,8.83
2017-09-19T07:07:39.542Z,9.33
2017-09-19T07:10:06.879Z,8.03
2017-09-19T07:12:33.764Z,8.33
2017-09-19T07:15:01.034Z,7.80
2017-09-19T07:17:27.905Z,9.00
2017-09-19T07:19:54.789Z,10.33
2017-09-19T07:22:21.702Z,7.87
2017-09-19T07:24:48.657Z,8.47
2017-09-19T07:27:15.605Z,7.57
2017-09-19T07:29:42.554Z,10.80
2017-09-19T07:32:09.435Z,7.37
2017-09-19T07:34:36.323Z,7.53
2017-09-19T07:37:03.285Z,7.23
2017-09-19T07:39:30.229Z,7.27
2017-09-19T07:41:57.114Z,6.27
2017-09-19T07:44:24.030Z,7.03
2017-09-19T07:46:50.941Z,5.67
2017-09-19T07:49:17.821Z,6.90
2017-09-19T07:51:44.758Z,7.00
2017-09-19T07:54:11.649Z,6.70
2017-09-19T07:56:38.531Z,5.70
2017-09-19T07:59:05.446Z,6.77
2017-09-19T08:01:32.338Z,6.37
2017-09-19T08:03:59.226Z,7.30
2017-09-19T08:06:26.155Z,7.63
2017-09-19T08:08:53.501Z,6.60
2017-09-19T08:11:20.838Z,5.83
2017-09-19T08:13:47.834Z,6.50
2017-09-19T08:16:14.737Z,6.90
2017-09-19T08:18:41.616Z,6.30
2017-09-19T08:21:08.544Z,5.67
2017-09-19T08:23:35.882Z,5.70
2017-09-19T08:26:02.826Z,6.20
2017-09-19T08:28:29.742Z,7.10
2017-09-19T08:30:56.722Z,6.20
2017-09-19T08:33:23.612Z,5.93
2017-09-19T08:35:50.638Z,5.40
2017-09-19T08:38:17.969Z,5.90
2017-09-19T08:40:44.857Z,5.00
2017-09-19T08:43:11.779Z,5.10
2017-09-19T08:45:39.049Z,5.30
2017-09-19T08:48:05.932Z,6.03
2017-09-19T08:50:32.917Z,4.60
2017-09-19T08:52:59.798Z,6.17
2017-09-19T08:55:26.698Z,6.83
2017-09-19T08:57:53.677Z,5.60
2017-09-19T09:00:21.002Z,5.03
2017-09-19T09:02:48.049Z,5.27
2017-09-19T09:05:14.973Z,4.87
2017-09-19T09:07:41.853Z,5.03
2017-09-19T09:10:09.125Z,5.57
2017-09-19T09:12:36.142Z,4.93
2017-09-19T09:15:03.026Z,4.60
2017-09-19T09:17:29.935Z,5.13
2017-09-19T09:19:56.877Z,4.47
2017-09-19T09:22:24.227Z,4.63
2017-09-19T09:24:51.213Z,4.87
2017-09-19T09:27:18.209Z,4.43
2017-09-19T09:29:45.205Z,4.10
2017-09-19T09:32:12.085Z,3.83
2017-09-19T09:34:39.021Z,3.60
2017-09-19T09:37:05.897Z,3.47
2017-09-19T09:39:32.854Z,3.60
2017-09-19T09:42:00.244Z,4.13
2017-09-19T09:44:27.126Z,4.23
2017-09-19T09:46:54.007Z,3.20
2017-09-19T09:49:21.329Z,3.63
2017-09-19T09:51:48.298Z,3.63
2017-09-19T09:54:15.180Z,3.00
2017-09-19T09:56:42.181Z,3.37
2017-09-19T09:59:09.063Z,4.03
2017-09-19T10:01:35.942Z,5.33
2017-09-19T10:04:02.920Z,2.90
2017-09-19T10:06:29.811Z,3.33
2017-09-19T10:08:56.709Z,3.30
2017-09-19T10:11:23.694Z,3.40
2017-09-19T10:13:50.603Z,4.13
2017-09-19T10:16:17.544Z,3.33
2017-09-19T10:18:44.462Z,3.20
2017-09-19T10:21:11.442Z,2.83
2017-09-19T10:23:38.396Z,3.43
2017-09-19T10:26:05.334Z,2.70
2017-09-19T10:28:32.310Z,2.77
2017-09-19T10:30:59.638Z,3.40
2017-09-19T10:33:26.562Z,4.00
2017-09-19T10:35:53.526Z,3.83
2017-09-19T10:38:20.408Z,3.70
2017-09-19T10:40:47.720Z,4.57
2017-09-19T10:43:14.613Z,3.40
2017-09-19T10:45:41.490Z,8.20
2017-09-19T10:48:08.419Z,4.43
2017-09-19T10:50:35.309Z,5.03
2017-09-19T10:53:02.261Z,3.40
2017-09-19T10:55:29.193Z,3.20
2017-09-19T10:57:56.149Z,3.70
2017-09-19T11:00:23.042Z,4.00
2017-09-19T11:02:50.042Z,3.97
2017-09-19T11:05:16.934Z,4.63
2017-09-19T11:07:43.844Z,4.23
2017-09-19T11:10:11.182Z,3.20
2017-09-19T11:12:38.061Z,3.90
2017-09-19T11:15:05.389Z,3.33
2017-09-19T11:17:32.339Z,2.73
2017-09-19T11:19:59.290Z,3.53
2017-09-19T11:22:26.232Z,2.23
2017-09-19T11:24:53.180Z,2.40
2017-09-19T11:27:20.121Z,2.20
2017-09-19T11:29:47.006Z,2.20
2017-09-19T11:32:13.958Z,2.30
2017-09-19T11:34:40.873Z,1.73
2017-09-19T11:37:08.150Z,3.23
2017-09-19T11:39:35.146Z,2.60
2017-09-19T11:42:02.034Z,2.03
2017-09-19T11:44:29.333Z,2.63
2017-09-19T11:46:56.354Z,2.43
2017-09-19T11:49:23.254Z,4.37
2017-09-19T11:51:50.209Z,2.70
2017-09-19T11:54:17.154Z,2.70
2017-09-19T11:56:44.506Z,2.53
2017-09-19T11:59:11.449Z,2.93
2017-09-19T12:01:38.402Z,3.93
2017-09-19T12:04:05.337Z,2.73
2017-09-19T12:06:32.295Z,3.37
2017-09-19T12:08:59.214Z,3.90
2017-09-19T12:11:26.182Z,4.10
2017-09-19T12:13:53.062Z,3.63
2017-09-19T12:16:20.091Z,3.43
2017-09-19T12:18:47.425Z,4.03
2017-09-19T12:21:14.377Z,3.80
2017-09-19T12:23:41.302Z,4.47
2017-09-19T12:26:08.274Z,4.13
2017-09-19T12:28:35.321Z,5.30
2017-09-19T12:31:02.261Z,4.57
2017-09-19T12:33:29.229Z,5.00
2017-09-19T12:35:56.510Z,6.10
2017-09-19T12:38:23.518Z,4.90
2017-09-19T12:40:50.461Z,5.10
2017-09-19T12:43:17.351Z,5.40
2017-09-19T12:45:44.266Z,4.67
2017-09-19T12:48:11.634Z,6.20
2017-09-19T12:50:38.915Z,4.90
2017-09-19T12:53:05.830Z,4.30
2017-09-19T12:55:33.161Z,4.80
2017-09-19T12:58:00.106Z,6.10
2017-09-19T13:00:27.021Z,4.50
2017-09-19T13:02:54.005Z,6.53
2017-09-19T13:05:20.879Z,3.90
2017-09-19T13:07:47.794Z,3.80
2017-09-19T13:10:14.704Z,3.70
2017-09-19T13:12:41.686Z,3.53
2017-09-19T13:15:08.630Z,3.97
2017-09-19T13:17:35.577Z,3.50
2017-09-19T13:20:02.463Z,2.50
2017-09-19T13:22:29.386Z,3.20
2017-09-19T13:24:56.726Z,8.03
2017-09-19T13:27:23.674Z,3.50
2017-09-19T13:29:50.624Z,3.37
2017-09-19T13:32:29.917Z,3.53
2017-09-19T13:34:56.898Z,4.20
2017-09-19T13:37:23.773Z,6.43
2017-09-19T13:39:51.054Z,8.80
2017-09-19T13:42:17.969Z,5.50
2017-09-19T13:44:45.247Z,5.17
2017-09-19T13:47:12.141Z,5.70
2017-09-19T13:49:39.057Z,4.07
2017-09-19T13:52:05.933Z,4.20
2017-09-19T13:54:32.928Z,3.50
2017-09-19T13:56:59.926Z,2.33
2017-09-19T13:59:26.873Z,3.23
2017-09-19T14:01:53.758Z,3.60
2017-09-19T14:04:20.680Z,3.30
2017-09-19T14:06:47.581Z,3.60
2017-09-19T14:09:14.562Z,4.80
2017-09-19T14:11:41.478Z,2.87
2017-09-19T14:14:08.464Z,2.90
2017-09-19T14:16:35.403Z,3.83
2017-09-19T14:19:02.310Z,4.20
2017-09-19T14:21:29.192Z,4.23
2017-09-19T14:23:56.134Z,3.87
2017-09-19T14:26:23.054Z,3.43
2017-09-19T14:28:50.035Z,3.70
2017-09-19T14:31:16.918Z,3.40
2017-09-19T14:33:43.969Z,3.70
2017-09-19T14:36:10.840Z,3.03
2017-09-19T14:38:37.717Z,4.07
2017-09-19T14:41:04.669Z,3.50
2017-09-19T14:43:31.545Z,3.70
2017-09-19T14:45:58.426Z,4.53
2017-09-19T14:48:25.408Z,3.27
2017-09-19T14:50:52.348Z,3.57
2017-09-19T14:53:19.258Z,2.90
2017-09-19T14:55:46.173Z,3.63
2017-09-19T14:58:13.077Z,2.67
2017-09-19T15:00:40.034Z,3.30
2017-09-19T15:03:06.969Z,3.63
2017-09-19T15:05:33.953Z,3.17
2017-09-19T15:08:00.838Z,2.83
2017-09-19T15:10:27.817Z,3.13
2017-09-19T15:12:54.693Z,2.37
2017-09-19T15:15:21.605Z,2.80
2017-09-19T15:17:48.538Z,3.33
2017-09-19T15:20:15.507Z,2.90
2017-09-19T15:22:42.860Z,3.17
2017-09-19T15:25:09.798Z,3.27
2017-09-19T15:27:36.679Z,2.93
2017-09-19T15:30:03.608Z,3.00
2017-09-19T15:32:30.921Z,3.57
2017-09-19T15:34:57.893Z,3.60
2017-09-19T15:37:24.837Z,4.07
2017-09-19T15:39:51.797Z,4.20
2017-09-19T15:42:19.142Z,4.30
2017-09-19T15:44:46.022Z,3.20
2017-09-19T15:47:12.977Z,4.00
2017-09-19T15:49:39.858Z,3.83
2017-09-19T15:52:06.826Z,5.13
2017-09-19T15:54:33.781Z,4.53
2017-09-19T15:57:01.130Z,5.80
2017-09-19T15:59:28.012Z,5.20
2017-09-19T16:01:55.037Z,6.73
2017-09-19T16:04:22.374Z,6.27
2017-09-19T16:06:49.262Z,6.60
2017-09-19T16:09:16.266Z,6.30
2017-09-19T16:11:43.142Z,5.73
2017-09-19T16:14:10.062Z,5.73
2017-09-19T16:16:36.977Z,6.30
2017-09-19T16:19:03.853Z,6.10
2017-09-19T16:21:30.791Z,6.47
2017-09-19T16:23:57.706Z,5.93
2017-09-19T16:26:24.589Z,6.80
2017-09-19T16:28:51.534Z,6.83
2017-09-19T16:31:18.486Z,6.17
2017-09-19T16:33:45.433Z,7.33
2017-09-19T16:36:12.705Z,7.67
2017-09-19T16:38:40.013Z,7.33
2017-09-19T16:41:06.930Z,7.10
2017-09-19T16:43:33.827Z,6.83
2017-09-19T16:46:00.759Z,7.23
2017-09-19T16:48:27.641Z,7.50
2017-09-19T16:50:54.970Z,8.13
2017-09-19T16:53:21.924Z,8.00
2017-09-19T16:55:49.274Z,7.93
2017-09-19T16:58:16.237Z,8.67
2017-09-19T17:00:43.620Z,8.10
2017-09-19T17:03:10.501Z,7.40
2017-09-19T17:05:37.394Z,8.87
2017-09-19T17:08:04.389Z,9.50
2017-09-19T17:10:31.437Z,8.03
2017-09-19T17:12:58.381Z,7.73
2017-09-19T17:15:25.329Z,9.20
2017-09-19T17:17:52.214Z,9.03
2017-09-19T17:20:19.119Z,8.70
2017-09-19T17:22:46.065Z,9.73
2017-09-19T17:25:13.009Z,8.60
2017-09-19T17:27:39.958Z,9.10
2017-09-19T17:30:06.877Z,8.80
2017-09-19T17:32:33.765Z,10.20
2017-09-19T17:35:01.478Z,9.50
2017-09-19T17:37:28.399Z,9.07
2017-09-19T17:39:55.306Z,9.57
2017-09-19T17:42:22.186Z,8.30
2017-09-19T17:44:49.105Z,10.27
2017-09-19T17:47:16.049Z,9.63
2017-09-19T17:49:43.361Z,10.80
2017-09-19T17:52:10.288Z,9.73
2017-09-19T17:54:37.185Z,11.87
2017-09-19T17:57:04.137Z,9.70
2017-09-19T17:59:31.093Z,12.27
2017-09-19T18:01:58.370Z,11.93
2017-09-19T18:04:25.325Z,10.53
2017-09-19T18:06:52.332Z,14.50
2017-09-19T18:09:19.285Z,13.23
2017-09-19T18:11:46.235Z,14.70
2017-09-19T18:14:13.603Z,12.83
2017-09-19T18:16:40.897Z,14.17
2017-09-19T18:19:07.882Z,15.07
2017-09-19T18:21:34.849Z,13.30
2017-09-19T18:24:02.139Z,14.50
2017-09-19T18:26:29.029Z,13.70
2017-09-19T18:28:55.957Z,16.63
2017-09-19T18:31:22.926Z,16.40
2017-09-19T18:33:49.827Z,16.83
2017-09-19T18:36:16.813Z,16.50
2017-09-19T18:38:43.715Z,15.87
2017-09-19T18:41:10.598Z,16.30
2017-09-19T18:43:37.553Z,16.90
2017-09-19T18:46:04.447Z,17.83
2017-09-19T18:48:31.335Z,18.03
2017-09-19T18:50:58.289Z,17.77
2017-09-19T18:53:25.176Z,17.80
2017-09-19T18:55:52.063Z,17.33
2017-09-19T18:58:19.005Z,16.03
2017-09-19T19:00:46.018Z,17.07
2017-09-19T19:03:12.922Z,16.30
2017-09-19T19:05:39.847Z,18.30
2017-09-19T19:08:06.740Z,17.10
2017-09-19T19:10:33.622Z,18.60
2017-09-19T19:13:00.606Z,18.50
2017-09-19T19:15:27.590Z,17.77
2017-09-19T19:17:54.469Z,20.53
2017-09-19T19:20:21.437Z,18.73
2017-09-19T19:22:48.430Z,18.10
2017-09-19T19:25:15.331Z,18.63
2017-09-19T19:27:42.282Z,18.73
2017-09-19T19:30:09.166Z,19.13
2017-09-19T19:32:36.051Z,20.10
2017-09-19T19:35:02.985Z,18.90
2017-09-19T19:37:29.962Z,18.33
2017-09-19T19:39:56.911Z,19.67
2017-09-19T19:42:24.271Z,19.40
2017-09-19T19:44:51.213Z,19.50
2017-09-19T19:47:18.105Z,20.50
2017-09-19T19:49:45.021Z,20.77
2017-09-19T19:52:12.309Z,20.10
2017-09-19T19:54:39.193Z,22.07
2017-09-19T19:57:06.148Z,19.47
2017-09-19T19:59:33.095Z,19.93
2017-09-19T20:01:59.978Z,20.33
2017-09-19T20:04:26.917Z,19.53
2017-09-19T20:06:53.806Z,21.57
2017-09-19T20:09:20.703Z,20.90
2017-09-19T20:11:48.030Z,21.70
2017-09-19T20:14:14.926Z,20.53
2017-09-19T20:16:41.801Z,21.27
2017-09-19T20:19:08.793Z,21.37
2017-09-19T20:21:35.719Z,20.40
2017-09-19T20:24:02.661Z,21.30
2017-09-19T20:26:29.582Z,22.93
2017-09-19T20:28:56.553Z,20.80
2017-09-19T20:31:23.450Z,21.70
2017-09-19T20:33:50.449Z,25.03
2017-09-19T20:36:17.397Z,22.43
2017-09-19T20:38:44.341Z,23.07
2017-09-19T20:41:11.284Z,23.50
2017-09-19T20:43:38.232Z,22.57
2017-09-19T20:46:05.186Z,24.10
2017-09-19T20:48:32.088Z,25.20
2017-09-19T20:50:59.069Z,25.33
2017-09-19T20:53:26.018Z,24.20
2017-09-19T20:55:52.961Z,27.73
2017-09-19T20:58:19.875Z,24.10
2017-09-19T21:00:46.858Z,23.90
2017-09-19T21:03:13.813Z,23.90
2017-09-19T21:05:40.721Z,23.93
2017-09-19T21:08:07.689Z,24.33
2017-09-19T21:10:34.615Z,24.40
2017-09-19T21:13:01.593Z,24.20
2017-09-19T21:15:28.510Z,25.60
2017-09-19T21:17:55.393Z,24.87
2017-09-19T21:20:22.733Z,25.70
2017-09-19T21:22:49.610Z,26.90
2017-09-19T21:25:16.628Z,27.03
2017-09-19T21:27:43.588Z,27.40
2017-09-19T21:30:10.870Z,27.30
2017-09-19T21:32:37.778Z,26.83
2017-09-19T21:35:04.690Z,27.73
2017-09-19T21:37:31.582Z,26.33
2017-09-19T21:39:58.929Z,25.53
2017-09-19T21:42:26.283Z,26.80
2017-09-19T21:44:53.225Z,27.00
2017-09-19T21:47:20.180Z,27.73
2017-09-19T21:49:47.505Z,27.53
2017-09-19T21:52:14.397Z,28.17
2017-09-19T21:54:41.730Z,26.20
2017-09-19T21:57:09.073Z,28.50
2017-09-19T21:59:36.032Z,27.87
2017-09-19T22:02:02.983Z,27.77
2017-09-19T22:04:30.261Z,28.30
2017-09-19T22:06:57.275Z,27.23
2017-09-19T22:09:24.221Z,32.20
2017-09-19T22:11:51.169Z,30.73
2017-09-19T22:14:18.057Z,29.00
2017-09-19T22:16:45.057Z,29.97
2017-09-19T22:19:11.965Z,29.30
2017-09-19T22:21:38.956Z,29.17
2017-09-19T22:24:05.864Z,28.83
2017-09-19T22:26:33.666Z,30.30
2017-09-19T22:29:00.622Z,30.20
2017-09-19T22:31:27.541Z,30.03
2017-09-19T22:33:54.510Z,31.47
2017-09-19T22:36:21.554Z,31.23
2017-09-19T22:38:48.497Z,31.40
2017-09-19T22:41:15.429Z,32.37
2017-09-19T22:43:42.334Z,32.50
2017-09-19T22:46:09.233Z,32.13
2017-09-19T22:48:36.181Z,31.07
2017-09-19T22:51:03.094Z,32.10
2017-09-19T22:53:30.069Z,30.67
2017-09-19T22:55:56.977Z,33.27
2017-09-19T22:58:23.974Z,31.70
2017-09-19T23:00:50.897Z,34.17
2017-09-19T23:03:17.870Z,32.07
2017-09-19T23:05:44.809Z,36.27
2017-09-19T23:08:11.730Z,31.23
2017-09-19T23:10:38.621Z,32.17
2017-09-19T23:13:05.894Z,37.63
2017-09-19T23:15:32.803Z,32.10
2017-09-19T23:18:00.110Z,32.97
2017-09-19T23:20:27.022Z,33.93
2017-09-19T23:22:54.357Z,36.40
2017-09-19T23:25:21.306Z,33.80
2017-09-19T23:27:48.224Z,37.97
2017-09-19T23:30:15.118Z,36.20
2017-09-19T23:32:42.421Z,37.17
2017-09-19T23:35:09.346Z,36.30
2017-09-19T23:37:36.241Z,37.40
2017-09-19T23:40:03.261Z,35.13
2017-09-19T23:42:30.240Z,35.07
2017-09-19T23:44:57.164Z,34.93
2017-09-19T23:47:24.058Z,37.20
2017-09-19T23:49:51.076Z,34.83
2017-09-19T23:52:17.953Z,38.60
2017-09-19T23:54:44.885Z,36.30
2017-09-19T23:57:12.234Z,36.03
2017-09-19T23:59:39.253Z,35.80
